createdAt,value
2023-02-24T00:01:20.922Z,1.17
2023-02-24T00:04:22.558Z,0.82
2023-02-24T00:07:23.970Z,1.73
2023-02-24T00:10:25.383Z,1.30
2023-02-24T00:13:29.462Z,1.25
2023-02-24T00:16:31.595Z,1.33
2023-02-24T00:19:33.101Z,0.95
2023-02-24T00:22:34.629Z,1.50
2023-02-24T00:25:36.075Z,1.25
2023-02-24T00:28:37.545Z,1.40
2023-02-24T00:31:40.441Z,1.27
2023-02-24T00:34:42.319Z,1.23
2023-02-24T00:37:43.769Z,1.35
2023-02-24T00:40:45.316Z,1.20
2023-02-24T00:43:46.802Z,1.73
2023-02-24T00:46:48.244Z,1.50
2023-02-24T00:49:49.701Z,1.50
2023-02-24T00:52:51.137Z,1.17
2023-02-24T00:55:59.696Z,1.17
2023-02-24T00:59:02.346Z,1.67
2023-02-24T01:02:04.159Z,2.10
2023-02-24T01:05:05.902Z,1.17
2023-02-24T01:08:07.512Z,1.27
2023-02-24T01:11:09.344Z,1.55
2023-02-24T01:14:13.560Z,1.00
2023-02-24T01:17:18.232Z,1.83
2023-02-24T01:20:19.836Z,1.45
2023-02-24T01:23:21.392Z,1.40
2023-02-24T01:26:23.272Z,1.17
2023-02-24T01:29:24.736Z,1.60
2023-02-24T01:32:26.425Z,1.50
2023-02-24T01:35:28.009Z,1.38
2023-02-24T01:38:29.423Z,1.45
2023-02-24T01:41:31.112Z,1.58
2023-02-24T01:44:32.465Z,1.55
2023-02-24T01:47:34.077Z,1.25
2023-02-24T01:50:38.164Z,1.35
2023-02-24T01:53:39.618Z,0.95
2023-02-24T01:56:42.749Z,1.20
2023-02-24T01:59:47.950Z,1.63
2023-02-24T02:02:49.864Z,1.13
2023-02-24T02:05:53.491Z,2.13
2023-02-24T02:08:55.359Z,1.35
2023-02-24T02:11:56.764Z,1.77
2023-02-24T02:14:58.818Z,1.85
2023-02-24T02:18:24.102Z,1.10
2023-02-24T02:21:48.491Z,0.90
2023-02-24T02:25:00.798Z,1.45
2023-02-24T02:28:25.406Z,1.75
2023-02-24T02:31:44.712Z,0.80
2023-02-24T02:34:52.166Z,1.13
2023-02-24T02:38:02.631Z,1.30
2023-02-24T02:41:09.162Z,1.23
2023-02-24T02:44:19.640Z,1.92
2023-02-24T02:47:33.000Z,1.10
2023-02-24T02:50:45.454Z,1.08
2023-02-24T02:54:06.272Z,1.30
2023-02-24T02:57:13.284Z,1.13
2023-02-24T03:00:23.370Z,1.27
2023-02-24T03:03:25.947Z,0.90
2023-02-24T03:06:32.466Z,0.83
2023-02-24T03:09:39.000Z,1.38
2023-02-24T03:12:41.841Z,1.30
2023-02-24T03:15:45.158Z,1.00
2023-02-24T03:19:08.560Z,1.55
2023-02-24T03:22:13.951Z,1.00
2023-02-24T03:25:16.117Z,1.02
2023-02-24T03:28:32.355Z,1.10
2023-02-24T03:31:46.250Z,1.25
2023-02-24T03:35:09.499Z,1.25
2023-02-24T03:38:13.152Z,0.82
2023-02-24T03:41:15.207Z,0.88
2023-02-24T03:44:16.715Z,0.98
2023-02-24T03:47:18.306Z,1.20
2023-02-24T03:50:21.015Z,0.93
2023-02-24T03:54:01.500Z,1.10
2023-02-24T03:57:28.768Z,0.98
2023-02-24T04:00:53.579Z,1.45
2023-02-24T04:04:03.340Z,1.23
2023-02-24T04:07:34.096Z,0.82
2023-02-24T04:10:41.492Z,1.00
2023-02-24T04:13:50.935Z,0.93
2023-02-24T04:17:10.050Z,1.17
2023-02-24T04:20:15.165Z,0.98
2023-02-24T04:23:26.337Z,1.13
2023-02-24T04:26:30.040Z,1.23
2023-02-24T04:29:38.508Z,1.30
2023-02-24T04:32:40.868Z,0.90
2023-02-24T04:35:45.317Z,1.13
2023-02-24T04:38:47.972Z,1.10
2023-02-24T04:41:50.292Z,1.27
2023-02-24T04:44:51.777Z,1.70
2023-02-24T04:47:55.258Z,2.03
2023-02-24T04:54:01.720Z,1.30
2023-02-24T04:57:04.016Z,1.13
2023-02-24T05:00:06.006Z,1.33
2023-02-24T05:03:10.144Z,0.85
2023-02-24T05:06:14.850Z,0.93
2023-02-24T05:09:17.634Z,1.35
2023-02-24T05:12:19.067Z,1.00
2023-02-24T05:15:20.505Z,1.20
2023-02-24T05:18:21.989Z,1.52
2023-02-24T05:21:23.436Z,1.20
2023-02-24T05:24:27.870Z,1.27
2023-02-24T05:27:29.307Z,3.00
2023-02-24T05:30:31.105Z,8.18
2023-02-24T05:33:34.370Z,6.78
2023-02-24T05:36:38.993Z,8.60
2023-02-24T05:39:40.430Z,4.45
2023-02-24T05:42:41.877Z,2.03
2023-02-24T05:45:44.008Z,1.55
2023-02-24T05:48:50.060Z,1.40
2023-02-24T05:51:53.562Z,1.10
2023-02-24T05:57:56.248Z,1.58
2023-02-24T06:00:58.303Z,1.20
2023-02-24T06:04:01.641Z,1.25
2023-02-24T06:07:03.044Z,2.25
2023-02-24T06:10:04.931Z,1.38
2023-02-24T06:13:07.185Z,1.60
2023-02-24T06:16:08.611Z,2.35
2023-02-24T06:19:12.020Z,1.65
2023-02-24T06:25:15.507Z,2.08
2023-02-24T06:28:16.937Z,1.55
2023-02-24T06:31:18.498Z,1.50
2023-02-24T06:34:20.037Z,1.83
2023-02-24T06:37:21.898Z,1.90
2023-02-24T06:40:23.360Z,2.25
2023-02-24T06:43:24.795Z,2.78
2023-02-24T06:46:26.341Z,2.17
2023-02-24T06:49:28.880Z,1.90
2023-02-24T06:52:30.283Z,2.07
2023-02-24T06:55:31.689Z,1.77
2023-02-24T06:58:33.369Z,1.92
2023-02-24T07:01:34.881Z,2.30
2023-02-24T07:04:36.359Z,2.90
2023-02-24T07:07:37.850Z,3.67
2023-02-24T07:10:39.245Z,3.03
2023-02-24T07:13:40.702Z,2.30
2023-02-24T07:16:42.244Z,2.10
2023-02-24T07:19:43.800Z,2.35
2023-02-24T07:22:47.532Z,2.42
2023-02-24T07:25:48.996Z,2.60
2023-02-24T07:28:51.490Z,3.10
2023-02-24T07:31:53.417Z,2.25
2023-02-24T07:34:54.939Z,2.20
2023-02-24T07:37:56.556Z,3.05
2023-02-24T07:40:58.434Z,2.60
2023-02-24T07:44:00.365Z,4.10
2023-02-24T07:47:01.895Z,7.05
2023-02-24T07:50:03.491Z,4.43
2023-02-24T07:53:05.392Z,3.95
2023-02-24T07:56:12.508Z,2.80
2023-02-24T07:59:14.240Z,2.28
2023-02-24T08:02:16.127Z,2.70
2023-02-24T08:05:17.678Z,2.42
2023-02-24T08:08:19.063Z,2.90
2023-02-24T08:11:20.733Z,2.35
2023-02-24T08:14:29.848Z,1.80
2023-02-24T08:17:31.224Z,2.60
2023-02-24T08:20:32.829Z,2.28
2023-02-24T08:23:34.246Z,2.42
2023-02-24T08:26:35.717Z,2.22
2023-02-24T08:29:38.773Z,1.83
2023-02-24T08:32:42.372Z,1.80
2023-02-24T08:35:43.970Z,1.88
2023-02-24T08:38:45.342Z,1.45
2023-02-24T08:41:46.754Z,1.80
2023-02-24T08:44:48.182Z,1.42
2023-02-24T08:47:49.632Z,1.88
2023-02-24T08:50:51.041Z,1.45
2023-02-24T08:53:55.391Z,1.40
2023-02-24T08:56:56.859Z,1.52
2023-02-24T08:59:58.275Z,1.90
2023-02-24T09:02:59.728Z,5.63
2023-02-24T09:06:01.078Z,6.53
2023-02-24T09:09:03.480Z,8.70
2023-02-24T09:12:04.926Z,5.28
2023-02-24T09:15:08.317Z,3.33
2023-02-24T09:18:09.895Z,1.67
2023-02-24T09:21:13.660Z,1.35
2023-02-24T09:24:17.017Z,1.48
2023-02-24T09:30:27.528Z,1.67
2023-02-24T09:33:34.737Z,1.50
2023-02-24T09:36:36.656Z,2.33
2023-02-24T09:39:38.218Z,1.85
2023-02-24T09:42:39.695Z,2.13
2023-02-24T09:45:41.395Z,2.38
2023-02-24T09:48:54.071Z,2.30
2023-02-24T09:51:55.515Z,2.17
2023-02-24T09:54:56.930Z,3.28
2023-02-24T09:58:41.794Z,2.30
2023-02-24T10:01:57.096Z,1.48
2023-02-24T10:05:17.464Z,2.30
2023-02-24T10:08:26.010Z,1.50
2023-02-24T10:11:29.944Z,1.92
2023-02-24T10:14:44.384Z,2.10
2023-02-24T10:17:52.243Z,2.20
2023-02-24T10:21:06.143Z,1.85
2023-02-24T10:24:26.163Z,2.13
2023-02-24T10:27:36.310Z,2.80
2023-02-24T10:31:02.264Z,3.05
2023-02-24T10:34:09.850Z,2.70
2023-02-24T10:37:27.738Z,2.45
2023-02-24T10:40:31.275Z,3.05
2023-02-24T10:43:33.981Z,4.20
2023-02-24T10:46:41.707Z,3.15
2023-02-24T10:49:47.908Z,4.05
2023-02-24T10:52:53.243Z,3.15
2023-02-24T10:55:58.970Z,2.80
2023-02-24T10:59:09.751Z,2.85
2023-02-24T11:02:21.971Z,4.63
2023-02-24T11:05:24.716Z,4.00
2023-02-24T11:08:26.251Z,3.78
2023-02-24T11:11:34.825Z,3.90
2023-02-24T11:14:58.576Z,3.65
2023-02-24T11:18:00.296Z,4.43
2023-02-24T11:21:07.497Z,5.05
2023-02-24T11:24:16.905Z,4.50
2023-02-24T11:27:22.548Z,4.70
2023-02-24T11:30:27.117Z,5.43
2023-02-24T11:33:46.003Z,6.88
2023-02-24T11:37:17.880Z,6.07
2023-02-24T11:40:24.097Z,4.30
2023-02-24T11:43:29.647Z,4.70
2023-02-24T11:46:41.580Z,5.03
2023-02-24T11:49:52.641Z,5.32
2023-02-24T11:52:57.871Z,4.70
2023-02-24T11:56:04.961Z,5.25
2023-02-24T11:59:26.369Z,5.13
2023-02-24T12:02:41.887Z,6.30
2023-02-24T12:05:48.825Z,5.85
2023-02-24T12:08:56.897Z,4.90
2023-02-24T12:12:22.301Z,7.07
2023-02-24T12:15:31.003Z,7.55
2023-02-24T12:18:35.398Z,7.50
2023-02-24T12:21:42.153Z,9.32
2023-02-24T12:24:51.079Z,8.85
2023-02-24T12:28:17.342Z,9.98
2023-02-24T12:31:56.290Z,9.32
2023-02-24T12:35:12.092Z,7.40
2023-02-24T12:38:31.671Z,6.43
2023-02-24T12:41:37.561Z,5.20
2023-02-24T12:45:13.234Z,6.60
2023-02-24T12:48:48.582Z,4.93
2023-02-24T12:52:04.908Z,4.78
2023-02-24T12:55:21.228Z,4.35
2023-02-24T12:58:28.613Z,4.88
2023-02-24T13:01:41.041Z,5.80
2023-02-24T13:05:02.418Z,6.97
2023-02-24T13:08:12.617Z,5.85
2023-02-24T13:11:35.419Z,4.28
2023-02-24T13:14:39.761Z,6.28
2023-02-24T13:17:47.317Z,5.75
2023-02-24T13:20:48.757Z,4.40
2023-02-24T13:23:58.240Z,4.25
2023-02-24T13:27:22.949Z,4.07
2023-02-24T13:30:28.808Z,4.97
2023-02-24T13:33:38.727Z,2.70
2023-02-24T13:36:47.606Z,2.10
2023-02-24T13:39:49.053Z,1.65
2023-02-24T13:42:56.374Z,1.10
2023-02-24T13:46:01.705Z,2.38
2023-02-24T13:49:21.412Z,1.70
2023-02-24T13:52:22.764Z,1.60
2023-02-24T13:55:47.013Z,2.30
2023-02-24T13:59:16.334Z,2.10
2023-02-24T14:02:21.264Z,1.90
2023-02-24T14:05:29.546Z,3.03
2023-02-24T14:08:45.659Z,3.58
2023-02-24T14:11:51.934Z,3.42
2023-02-24T14:14:54.045Z,3.03
2023-02-24T14:18:02.173Z,2.25
2023-02-24T14:21:03.863Z,4.93
2023-02-24T14:24:12.806Z,2.63
2023-02-24T14:27:26.005Z,2.60
2023-02-24T14:30:33.757Z,2.72
2023-02-24T14:33:37.416Z,2.35
2023-02-24T14:36:43.726Z,2.10
2023-02-24T14:39:53.740Z,2.80
2023-02-24T14:42:56.048Z,2.70
2023-02-24T14:45:57.902Z,2.45
2023-02-24T14:48:59.407Z,2.58
2023-02-24T14:52:21.076Z,1.65
2023-02-24T14:55:26.871Z,0.90
2023-02-24T14:58:38.642Z,0.68
2023-02-24T15:01:45.132Z,1.35
2023-02-24T15:04:47.296Z,0.85
2023-02-24T15:07:51.579Z,1.08
2023-02-24T15:10:53.631Z,1.10
2023-02-24T15:13:59.369Z,1.05
2023-02-24T15:17:08.428Z,2.13
2023-02-24T15:20:32.325Z,2.50
2023-02-24T15:26:36.686Z,2.15
2023-02-24T15:29:38.115Z,2.47
2023-02-24T15:32:39.851Z,4.53
2023-02-24T15:35:49.101Z,5.75
2023-02-24T15:38:57.733Z,1.65
2023-02-24T15:42:08.663Z,1.73
2023-02-24T15:45:36.385Z,1.40
2023-02-24T15:48:42.872Z,1.40
2023-02-24T15:51:46.933Z,2.00
2023-02-24T15:54:48.612Z,1.73
2023-02-24T15:57:58.576Z,2.25
2023-02-24T16:01:00.103Z,2.33
2023-02-24T16:04:01.888Z,2.03
2023-02-24T16:07:05.065Z,1.60
2023-02-24T16:10:06.806Z,2.70
2023-02-24T16:13:17.947Z,1.63
2023-02-24T16:16:21.234Z,1.80
2023-02-24T16:22:24.923Z,2.05
2023-02-24T16:25:27.725Z,2.03
2023-02-24T16:28:31.594Z,1.98
2023-02-24T16:31:33.142Z,1.90
2023-02-24T16:34:34.699Z,2.28
2023-02-24T16:37:36.310Z,2.97
2023-02-24T16:40:37.800Z,2.70
2023-02-24T16:43:39.811Z,2.42
2023-02-24T16:46:44.199Z,2.70
2023-02-24T16:49:45.922Z,3.30
2023-02-24T16:52:47.438Z,2.90
2023-02-24T16:55:49.439Z,3.15
2023-02-24T16:58:50.842Z,3.00
2023-02-24T17:01:54.072Z,3.45
2023-02-24T17:07:57.291Z,3.65
2023-02-24T17:10:58.721Z,2.97
2023-02-24T17:14:00.091Z,3.20
2023-02-24T17:17:01.598Z,3.80
2023-02-24T17:20:03.982Z,4.13
2023-02-24T17:23:05.777Z,4.22
2023-02-24T17:26:07.181Z,4.18
2023-02-24T17:29:08.656Z,4.68
2023-02-24T17:32:10.220Z,5.20
2023-02-24T17:35:11.919Z,6.18
2023-02-24T17:38:18.940Z,4.10
2023-02-24T17:41:21.776Z,6.03
2023-02-24T17:44:23.208Z,4.65
2023-02-24T17:47:24.936Z,5.25
2023-02-24T17:50:26.409Z,5.15
2023-02-24T17:53:27.812Z,7.72
2023-02-24T17:56:29.373Z,7.00
2023-02-24T17:59:30.810Z,8.48
2023-02-24T18:02:32.304Z,5.50
2023-02-24T18:05:33.824Z,5.47
2023-02-24T18:08:36.498Z,6.88
2023-02-24T18:11:37.907Z,6.18
2023-02-24T18:14:39.386Z,6.80
2023-02-24T18:17:40.896Z,8.07
2023-02-24T18:20:43.563Z,12.77
2023-02-24T18:23:45.377Z,8.67
2023-02-24T18:26:46.798Z,6.22
2023-02-24T18:29:48.202Z,9.25
2023-02-24T18:32:49.803Z,9.57
2023-02-24T18:35:59.590Z,5.43
2023-02-24T18:39:01.012Z,7.53
2023-02-24T18:42:02.482Z,9.27
2023-02-24T18:45:04.210Z,6.78
2023-02-24T18:48:05.640Z,8.45
2023-02-24T18:51:07.675Z,5.95
2023-02-24T18:54:10.677Z,5.53
2023-02-24T18:57:12.089Z,7.57
2023-02-24T19:00:14.372Z,3.72
2023-02-24T19:03:15.891Z,4.38
2023-02-24T19:06:18.727Z,4.10
2023-02-24T19:09:20.178Z,3.38
2023-02-24T19:12:21.673Z,3.70
2023-02-24T19:15:23.157Z,3.67
2023-02-24T19:18:24.581Z,3.85
2023-02-24T19:21:27.896Z,4.93
2023-02-24T19:24:29.390Z,4.30
2023-02-24T19:27:30.810Z,4.10
2023-02-24T19:30:32.298Z,4.07
2023-02-24T19:33:33.728Z,4.68
2023-02-24T19:36:36.618Z,4.95
2023-02-24T19:39:38.048Z,5.70
2023-02-24T19:42:39.488Z,4.68
2023-02-24T19:45:42.328Z,4.47
2023-02-24T19:48:44.311Z,4.88
2023-02-24T19:51:48.125Z,4.43
2023-02-24T19:54:49.812Z,4.53
2023-02-24T19:57:54.893Z,3.67
2023-02-24T20:00:56.415Z,4.57
2023-02-24T20:04:00.592Z,4.63
2023-02-24T20:07:02.028Z,4.43
2023-02-24T20:10:04.394Z,5.68
2023-02-24T20:13:05.947Z,5.07
2023-02-24T20:16:09.987Z,4.40
2023-02-24T20:19:13.314Z,5.63
2023-02-24T20:22:14.721Z,5.13
2023-02-24T20:25:16.206Z,4.72
2023-02-24T20:28:17.834Z,4.88
2023-02-24T20:31:19.657Z,5.35
2023-02-24T20:34:21.142Z,5.25
2023-02-24T20:37:22.540Z,6.13
2023-02-24T20:40:23.962Z,4.68
2023-02-24T20:43:25.820Z,4.10
2023-02-24T20:46:30.116Z,5.45
2023-02-24T20:49:31.529Z,3.33
2023-02-24T20:52:32.978Z,4.82
2023-02-24T20:55:34.415Z,5.55
2023-02-24T20:58:35.861Z,3.70
2023-02-24T21:01:37.854Z,3.90
2023-02-24T21:04:39.375Z,4.28
2023-02-24T21:07:40.900Z,3.13
2023-02-24T21:10:46.274Z,3.53
2023-02-24T21:13:50.147Z,2.85
2023-02-24T21:16:51.562Z,1.63
2023-02-24T21:19:52.998Z,1.85
2023-02-24T21:22:54.377Z,1.50
2023-02-24T21:25:55.943Z,1.48
2023-02-24T21:28:58.079Z,1.88
2023-02-24T21:31:59.656Z,1.73
2023-02-24T21:35:01.284Z,1.65
2023-02-24T21:38:02.664Z,1.40
2023-02-24T21:41:07.034Z,1.45
2023-02-24T21:44:11.745Z,1.60
2023-02-24T21:47:13.191Z,1.60
2023-02-24T21:50:14.730Z,1.40
2023-02-24T21:53:16.152Z,1.05
2023-02-24T21:56:19.444Z,2.00
2023-02-24T22:02:22.746Z,1.33
2023-02-24T22:05:25.948Z,1.25
2023-02-24T22:08:27.397Z,1.40
2023-02-24T22:11:31.831Z,1.92
2023-02-24T22:14:33.305Z,1.83
2023-02-24T22:17:35.703Z,1.50
2023-02-24T22:20:37.791Z,1.13
2023-02-24T22:23:40.027Z,1.70
2023-02-24T22:26:41.507Z,0.90
2023-02-24T22:29:43.102Z,0.88
2023-02-24T22:32:44.587Z,0.70
2023-02-24T22:35:46.083Z,0.70
2023-02-24T22:38:47.944Z,0.80
2023-02-24T22:41:51.140Z,0.77
2023-02-24T22:44:52.534Z,0.98
2023-02-24T22:47:53.992Z,0.70
2023-02-24T22:50:57.356Z,0.90
2023-02-24T22:53:58.800Z,0.90
2023-02-24T22:57:00.290Z,0.93
2023-02-24T23:00:01.967Z,0.88
2023-02-24T23:03:03.514Z,1.27
2023-02-24T23:06:11.141Z,0.70
2023-02-24T23:09:12.594Z,0.77
2023-02-24T23:12:14.009Z,0.68
2023-02-24T23:15:15.632Z,0.63
2023-02-24T23:18:17.244Z,0.77
2023-02-24T23:21:21.557Z,0.77
2023-02-24T23:24:22.989Z,0.65
2023-02-24T23:27:24.503Z,0.75
2023-02-24T23:30:25.903Z,1.15
2023-02-24T23:33:27.339Z,0.82
2023-02-24T23:36:29.766Z,0.70
2023-02-24T23:39:31.246Z,0.40
2023-02-24T23:42:32.707Z,0.93
2023-02-24T23:45:37.739Z,0.50
2023-02-24T23:48:40.060Z,0.82
2023-02-24T23:51:48.495Z,0.50
2023-02-24T23:54:50.670Z,0.77
2023-02-24T23:57:52.089Z,0.95
